Time;durP1;ratioP1;P1;durP2;ratioP2;P2;SDS_P1;SDS_P2;PMS_P1;PMS_P2;Temp;Humidity;BMP_temperature;BMP_pressure;BME280_temperature;BME280_humidity;BME280_pressure;Samples;Min_cycle;Max_cycle;Signal;HPM_P1;HPM_P2
2023/06/29 00:02:06;;;;;;;3.80;2.53;;;;;;;;;;5055570;28;20021;-59
2023/06/29 00:04:34;;;;;;;2.95;2.55;;;;;;;;;;5055073;28;20029;-60
2023/06/29 00:07:02;;;;;;;4.68;2.10;;;;;;;;;;5055567;28;20025;-59
2023/06/29 00:09:29;;;;;;;4.90;2.10;;;;;;;;;;5055109;28;20445;-59
2023/06/29 00:11:55;;;;;;;2.35;1.73;;;;;;;;;;5054779;28;20021;-60
2023/06/29 00:14:21;;;;;;;2.92;2.00;;;;;;;;;;5054939;28;20028;-60
2023/06/29 00:16:50;;;;;;;2.97;2.40;;;;;;;;;;5055068;28;20025;-59
2023/06/29 00:19:16;;;;;;;3.95;2.15;;;;;;;;;;5054753;28;20046;-59
2023/06/29 00:21:42;;;;;;;4.18;2.53;;;;;;;;;;5054449;28;20021;-59
2023/06/29 00:24:11;;;;;;;4.63;1.85;;;;;;;;;;5054987;28;20581;-60
2023/06/29 00:26:38;;;;;;;4.75;2.08;;;;;;;;;;5054613;28;20040;-59
2023/06/29 00:29:03;;;;;;;2.45;1.70;;;;;;;;;;5054438;28;20061;-59
2023/06/29 00:31:29;;;;;;;3.35;2.40;;;;;;;;;;5054507;28;20055;-59
2023/06/29 00:33:55;;;;;;;2.88;1.77;;;;;;;;;;5054513;28;20025;-59
2023/06/29 00:36:21;;;;;;;2.40;1.83;;;;;;;;;;5054784;28;20017;-59
2023/06/29 00:38:48;;;;;;;2.80;1.88;;;;;;;;;;5054902;28;20052;-59
2023/06/29 00:41:14;;;;;;;2.78;2.22;;;;;;;;;;5054305;28;20017;-59
2023/06/29 00:43:42;;;;;;;2.90;2.05;;;;;;;;;;5054322;28;20028;-59
2023/06/29 00:46:08;;;;;;;2.55;1.80;;;;;;;;;;5055051;28;20041;-59
2023/06/29 00:48:38;;;;;;;3.08;2.15;;;;;;;;;;5054982;28;20024;-59
2023/06/29 00:51:04;;;;;;;2.88;1.98;;;;;;;;;;5053338;28;20064;-59
2023/06/29 00:53:31;;;;;;;3.25;1.92;;;;;;;;;;5054168;28;20085;-59
2023/06/29 00:55:58;;;;;;;3.55;2.83;;;;;;;;;;5054148;28;20036;-59
2023/06/29 00:58:23;;;;;;;3.88;1.80;;;;;;;;;;5054661;28;20367;-60
2023/06/29 01:00:49;;;;;;;2.97;2.17;;;;;;;;;;5054030;28;20033;-60
2023/06/29 01:03:15;;;;;;;2.50;1.80;;;;;;;;;;5054599;28;20435;-59
2023/06/29 01:05:41;;;;;;;2.63;2.10;;;;;;;;;;5053975;28;20458;-59
2023/06/29 01:08:17;;;;;;;3.05;1.92;;;;;;;;;;5053060;28;20400;-59
2023/06/29 01:10:43;;;;;;;2.72;1.80;;;;;;;;;;5054108;28;20040;-60
2023/06/29 01:13:09;;;;;;;3.25;2.30;;;;;;;;;;5053798;28;20027;-59
2023/06/29 01:15:37;;;;;;;3.22;2.15;;;;;;;;;;5053827;28;20040;-59
2023/06/29 01:18:04;;;;;;;3.38;2.47;;;;;;;;;;5053087;28;20025;-59
2023/06/29 01:20:33;;;;;;;3.25;1.83;;;;;;;;;;5054827;28;20041;-59
2023/06/29 01:23:14;;;;;;;5.15;2.08;;;;;;;;;;5053764;28;20047;-59
2023/06/29 01:25:41;;;;;;;2.55;2.10;;;;;;;;;;5053715;28;20027;-59
2023/06/29 01:28:07;;;;;;;3.33;2.25;;;;;;;;;;5053765;28;20033;-59
2023/06/29 01:30:39;;;;;;;3.00;2.25;;;;;;;;;;5053897;28;20033;-60
2023/06/29 01:33:05;;;;;;;4.65;2.72;;;;;;;;;;5054241;28;20029;-59
2023/06/29 01:35:31;;;;;;;4.10;3.10;;;;;;;;;;5053581;28;20025;-59
2023/06/29 01:37:59;;;;;;;3.67;2.90;;;;;;;;;;5054482;28;20163;-59
2023/06/29 01:40:28;;;;;;;2.65;2.20;;;;;;;;;;5053604;28;20375;-59
2023/06/29 01:42:55;;;;;;;3.58;3.00;;;;;;;;;;5053585;28;20559;-59
2023/06/29 01:45:22;;;;;;;3.30;2.50;;;;;;;;;;5053558;28;20029;-59
2023/06/29 01:47:48;;;;;;;4.35;3.08;;;;;;;;;;5054076;28;20348;-59
2023/06/29 01:50:16;;;;;;;3.38;2.60;;;;;;;;;;5053473;28;20083;-59
2023/06/29 01:52:42;;;;;;;3.13;2.38;;;;;;;;;;5053400;28;20521;-59
2023/06/29 01:55:09;;;;;;;4.65;2.90;;;;;;;;;;5053457;28;20036;-59
2023/06/29 01:57:35;;;;;;;3.53;2.92;;;;;;;;;;5053707;28;20016;-59
2023/06/29 02:00:01;;;;;;;3.40;2.47;;;;;;;;;;5053386;28;20340;-59
2023/06/29 02:02:27;;;;;;;3.20;2.72;;;;;;;;;;5056192;28;20370;-59
2023/06/29 02:04:52;;;;;;;4.63;2.35;;;;;;;;;;5057254;28;20025;-59
2023/06/29 02:07:18;;;;;;;2.78;2.35;;;;;;;;;;5057822;28;20017;-59
2023/06/29 02:09:44;;;;;;;3.85;2.60;;;;;;;;;;5057433;28;20029;-59
2023/06/29 02:12:11;;;;;;;3.63;2.83;;;;;;;;;;5057347;28;20078;-59
2023/06/29 02:14:38;;;;;;;4.32;3.13;;;;;;;;;;5057411;28;20057;-59
2023/06/29 02:17:03;;;;;;;4.10;2.55;;;;;;;;;;5057341;28;20032;-59
2023/06/29 02:19:29;;;;;;;5.55;3.30;;;;;;;;;;5057298;28;20029;-60
2023/06/29 02:21:55;;;;;;;4.07;2.63;;;;;;;;;;5057042;28;20083;-59
2023/06/29 02:24:21;;;;;;;4.10;3.10;;;;;;;;;;5057503;28;20028;-59
2023/06/29 02:26:47;;;;;;;3.22;2.70;;;;;;;;;;5057241;28;20107;-59
2023/06/29 02:29:13;;;;;;;4.28;2.35;;;;;;;;;;5057334;28;20037;-59
2023/06/29 02:31:39;;;;;;;3.78;2.83;;;;;;;;;;5057344;28;20359;-59
2023/06/29 02:34:05;;;;;;;3.38;2.80;;;;;;;;;;5057108;28;20508;-59
2023/06/29 02:36:31;;;;;;;4.40;2.60;;;;;;;;;;5056788;28;20067;-59
2023/06/29 02:38:57;;;;;;;3.78;2.65;;;;;;;;;;5056356;28;20481;-59
2023/06/29 02:41:23;;;;;;;7.35;2.92;;;;;;;;;;5056469;28;20447;-59
2023/06/29 02:43:49;;;;;;;4.10;2.65;;;;;;;;;;5056444;28;20027;-59
2023/06/29 02:46:15;;;;;;;4.07;3.30;;;;;;;;;;5057034;28;20397;-59
2023/06/29 02:48:41;;;;;;;6.32;3.20;;;;;;;;;;5057166;28;20025;-59
2023/06/29 02:51:07;;;;;;;3.70;3.00;;;;;;;;;;5056346;28;20381;-60
2023/06/29 02:53:33;;;;;;;5.05;3.03;;;;;;;;;;5056420;28;20029;-59
2023/06/29 02:55:59;;;;;;;3.88;2.88;;;;;;;;;;5056070;28;20467;-59
2023/06/29 02:58:25;;;;;;;3.78;2.67;;;;;;;;;;5056851;28;20458;-59
2023/06/29 03:00:51;;;;;;;3.83;2.75;;;;;;;;;;5056573;28;20510;-59
2023/06/29 03:03:17;;;;;;;3.65;3.00;;;;;;;;;;5056218;28;20028;-59
2023/06/29 03:05:43;;;;;;;3.15;2.67;;;;;;;;;;5056107;28;20040;-59
2023/06/29 03:08:09;;;;;;;3.75;2.65;;;;;;;;;;5056453;28;20025;-59
2023/06/29 03:10:35;;;;;;;4.55;3.25;;;;;;;;;;5056197;28;20131;-59
2023/06/29 03:13:01;;;;;;;4.10;2.78;;;;;;;;;;5054986;28;20024;-59
2023/06/29 03:15:27;;;;;;;2.40;2.03;;;;;;;;;;5056052;28;20056;-59
2023/06/29 03:17:52;;;;;;;3.17;2.47;;;;;;;;;;5056236;28;20017;-59
2023/06/29 03:20:18;;;;;;;2.92;2.20;;;;;;;;;;5055869;28;20059;-59
2023/06/29 03:22:44;;;;;;;4.07;2.78;;;;;;;;;;5055890;28;20029;-59
2023/06/29 03:25:10;;;;;;;4.25;2.38;;;;;;;;;;5055873;28;20048;-59
2023/06/29 03:27:37;;;;;;;3.65;2.78;;;;;;;;;;5056108;28;20025;-59
2023/06/29 03:30:03;;;;;;;3.58;2.83;;;;;;;;;;5056101;28;20044;-59
2023/06/29 03:32:29;;;;;;;3.20;2.40;;;;;;;;;;5056246;28;20028;-59
2023/06/29 03:34:55;;;;;;;3.08;2.42;;;;;;;;;;5055708;28;20020;-59
2023/06/29 03:37:21;;;;;;;3.97;2.95;;;;;;;;;;5055972;28;20032;-59
2023/06/29 03:39:47;;;;;;;4.93;2.55;;;;;;;;;;5055869;28;20502;-59
2023/06/29 03:42:13;;;;;;;3.88;2.78;;;;;;;;;;5055850;28;20017;-59
2023/06/29 03:44:39;;;;;;;3.70;2.42;;;;;;;;;;5055510;28;20021;-59
2023/06/29 03:47:06;;;;;;;3.20;2.08;;;;;;;;;;5055747;28;20463;-59
2023/06/29 03:49:32;;;;;;;3.35;2.60;;;;;;;;;;5055297;28;20045;-59
2023/06/29 03:51:58;;;;;;;4.55;2.88;;;;;;;;;;5055362;28;20052;-59
2023/06/29 03:54:25;;;;;;;4.03;2.70;;;;;;;;;;5055654;28;20017;-59
2023/06/29 03:56:51;;;;;;;4.05;2.88;;;;;;;;;;5055884;28;20057;-59
2023/06/29 03:59:17;;;;;;;4.35;3.00;;;;;;;;;;5055239;28;20040;-59
2023/06/29 04:01:43;;;;;;;2.95;2.63;;;;;;;;;;5055679;28;20115;-59
2023/06/29 04:04:09;;;;;;;4.40;3.42;;;;;;;;;;5055403;28;20028;-59
2023/06/29 04:06:35;;;;;;;5.60;3.03;;;;;;;;;;5055203;28;20412;-59
2023/06/29 04:09:01;;;;;;;4.10;3.30;;;;;;;;;;5055220;28;20029;-59
2023/06/29 04:11:27;;;;;;;4.13;2.95;;;;;;;;;;5054920;28;20463;-59
2023/06/29 04:13:53;;;;;;;2.90;2.60;;;;;;;;;;5054865;28;20024;-59
2023/06/29 04:16:19;;;;;;;4.65;2.95;;;;;;;;;;5056106;28;20045;-59
2023/06/29 04:18:45;;;;;;;6.18;3.30;;;;;;;;;;5055300;28;20422;-59
2023/06/29 04:21:10;;;;;;;4.00;2.63;;;;;;;;;;5054694;28;20122;-59
2023/06/29 04:23:36;;;;;;;4.72;3.08;;;;;;;;;;5055373;28;20025;-59
2023/06/29 04:26:02;;;;;;;3.75;3.20;;;;;;;;;;5054945;28;20017;-59
2023/06/29 04:28:29;;;;;;;3.72;2.75;;;;;;;;;;5054609;28;20059;-59
2023/06/29 04:30:54;;;;;;;4.03;3.42;;;;;;;;;;5055090;28;20028;-59
2023/06/29 04:33:21;;;;;;;3.70;2.90;;;;;;;;;;5054521;28;20104;-59
2023/06/29 04:35:47;;;;;;;3.70;3.22;;;;;;;;;;5054410;28;20037;-59
2023/06/29 04:38:13;;;;;;;3.50;2.85;;;;;;;;;;5054914;28;20155;-59
2023/06/29 04:40:39;;;;;;;5.43;3.03;;;;;;;;;;5054189;28;20367;-59
2023/06/29 04:43:06;;;;;;;3.67;3.00;;;;;;;;;;5054133;28;20025;-59
2023/06/29 04:45:32;;;;;;;3.72;2.75;;;;;;;;;;5054189;28;20375;-59
2023/06/29 04:47:59;;;;;;;4.35;2.70;;;;;;;;;;5054629;28;20108;-60
2023/06/29 04:50:26;;;;;;;4.38;2.85;;;;;;;;;;5054456;28;20033;-60
2023/06/29 04:52:52;;;;;;;6.00;2.83;;;;;;;;;;5053985;28;20467;-60
2023/06/29 04:55:18;;;;;;;4.30;3.10;;;;;;;;;;5054094;28;20036;-60
2023/06/29 04:57:44;;;;;;;4.75;2.45;;;;;;;;;;5053826;28;20033;-60
2023/06/29 05:00:11;;;;;;;7.28;3.05;;;;;;;;;;5054167;28;20435;-60
2023/06/29 05:02:38;;;;;;;5.63;3.17;;;;;;;;;;5053880;28;20053;-60
2023/06/29 05:05:04;;;;;;;4.38;2.75;;;;;;;;;;5053787;28;20029;-60
2023/06/29 05:07:30;;;;;;;4.40;2.72;;;;;;;;;;5053794;28;20419;-60
2023/06/29 05:09:56;;;;;;;3.53;3.08;;;;;;;;;;5053985;28;20032;-60
2023/06/29 05:12:22;;;;;;;3.97;2.92;;;;;;;;;;5053741;28;20451;-60
2023/06/29 05:14:48;;;;;;;3.90;3.00;;;;;;;;;;5053789;28;20390;-60
2023/06/29 05:17:15;;;;;;;3.63;3.08;;;;;;;;;;5053992;28;20025;-60
2023/06/29 05:19:41;;;;;;;5.38;4.13;;;;;;;;;;5053564;28;20115;-60
2023/06/29 05:22:06;;;;;;;5.43;3.45;;;;;;;;;;5053721;28;20052;-60
2023/06/29 05:24:32;;;;;;;3.88;3.50;;;;;;;;;;5053886;28;20036;-60
2023/06/29 05:26:58;;;;;;;5.75;3.53;;;;;;;;;;5053915;28;20021;-60
2023/06/29 05:29:24;;;;;;;4.75;4.28;;;;;;;;;;5053510;28;20104;-60
2023/06/29 05:31:50;;;;;;;5.07;4.03;;;;;;;;;;5053592;28;20033;-60
2023/06/29 05:34:16;;;;;;;6.80;3.97;;;;;;;;;;5053786;28;20094;-60
2023/06/29 05:36:42;;;;;;;5.68;3.63;;;;;;;;;;5058005;28;20447;-60
2023/06/29 05:39:08;;;;;;;6.05;4.38;;;;;;;;;;5060013;28;20131;-60
2023/06/29 05:41:34;;;;;;;4.75;3.50;;;;;;;;;;5060336;28;20023;-60
2023/06/29 05:44:00;;;;;;;4.00;2.97;;;;;;;;;;5060127;28;20021;-60
2023/06/29 05:46:26;;;;;;;5.72;3.75;;;;;;;;;;5060445;28;20104;-60
2023/06/29 05:48:52;;;;;;;4.47;3.75;;;;;;;;;;5060040;28;20032;-60
2023/06/29 05:51:18;;;;;;;4.88;3.40;;;;;;;;;;5060220;28;20478;-60
2023/06/29 05:53:44;;;;;;;4.43;3.28;;;;;;;;;;5060367;28;20022;-60
2023/06/29 05:56:10;;;;;;;4.80;3.50;;;;;;;;;;5059495;28;20033;-60
2023/06/29 05:58:36;;;;;;;4.63;3.60;;;;;;;;;;5060362;28;20060;-60
2023/06/29 06:01:02;;;;;;;4.07;2.90;;;;;;;;;;5059874;28;20032;-60
2023/06/29 06:03:28;;;;;;;8.50;4.20;;;;;;;;;;5060170;28;20464;-60
2023/06/29 06:05:54;;;;;;;4.75;3.30;;;;;;;;;;5060405;28;20025;-60
2023/06/29 06:08:20;;;;;;;3.95;3.45;;;;;;;;;;5060198;28;20450;-60
2023/06/29 06:10:46;;;;;;;5.38;3.70;;;;;;;;;;5060150;28;20029;-60
2023/06/29 06:13:12;;;;;;;8.95;4.38;;;;;;;;;;5059746;28;20017;-60
2023/06/29 06:15:38;;;;;;;5.90;3.55;;;;;;;;;;5059828;28;20103;-60
2023/06/29 06:18:04;;;;;;;7.03;4.47;;;;;;;;;;5059841;28;20024;-60
2023/06/29 06:20:30;;;;;;;4.40;3.33;;;;;;;;;;5059833;28;20540;-60
2023/06/29 06:22:56;;;;;;;8.55;3.97;;;;;;;;;;5059759;28;20055;-60
2023/06/29 06:25:22;;;;;;;5.10;4.15;;;;;;;;;;5059737;28;20090;-60
2023/06/29 06:27:48;;;;;;;6.82;4.35;;;;;;;;;;5059997;28;20374;-60
2023/06/29 06:30:14;;;;;;;5.15;3.97;;;;;;;;;;5060168;28;20443;-60
2023/06/29 06:32:41;;;;;;;6.63;3.55;;;;;;;;;;5059615;28;20024;-60
2023/06/29 06:35:10;;;;;;;4.80;3.22;;;;;;;;;;5059578;28;20447;-60
2023/06/29 06:37:37;;;;;;;4.15;3.75;;;;;;;;;;5060283;28;20456;-60
2023/06/29 06:40:09;;;;;;;4.82;2.60;;;;;;;;;;5059250;28;20106;-60
2023/06/29 06:42:36;;;;;;;4.47;3.00;;;;;;;;;;5059869;28;20029;-60
2023/06/29 06:45:03;;;;;;;3.50;3.10;;;;;;;;;;5059454;28;20017;-60
2023/06/29 06:47:31;;;;;;;4.10;2.85;;;;;;;;;;5057346;28;20087;-60
2023/06/29 06:49:57;;;;;;;2.72;2.20;;;;;;;;;;5056715;28;20037;-60
2023/06/29 06:52:23;;;;;;;6.75;2.83;;;;;;;;;;5056319;28;20459;-60
2023/06/29 06:54:49;;;;;;;4.32;2.80;;;;;;;;;;5056298;28;20052;-60
2023/06/29 06:57:15;;;;;;;5.00;3.42;;;;;;;;;;5056186;28;20032;-60
2023/06/29 06:59:41;;;;;;;4.03;2.38;;;;;;;;;;5056998;28;20021;-60
2023/06/29 07:02:07;;;;;;;2.75;2.00;;;;;;;;;;5056131;28;20527;-60
2023/06/29 07:04:33;;;;;;;5.35;3.00;;;;;;;;;;5055928;28;20124;-60
2023/06/29 07:06:59;;;;;;;3.33;2.50;;;;;;;;;;5057067;28;20466;-60
2023/06/29 07:09:25;;;;;;;4.00;2.40;;;;;;;;;;5055939;28;20082;-60
2023/06/29 07:11:50;;;;;;;6.00;2.58;;;;;;;;;;5056294;28;20060;-60
2023/06/29 07:14:17;;;;;;;3.88;2.45;;;;;;;;;;5056455;28;20075;-59
2023/06/29 07:16:43;;;;;;;2.47;1.70;;;;;;;;;;5055946;28;20371;-59
2023/06/29 07:19:11;;;;;;;3.95;2.10;;;;;;;;;;5055799;28;20032;-59
2023/06/29 07:21:36;;;;;;;3.33;2.13;;;;;;;;;;5056092;28;20371;-59
2023/06/29 07:24:03;;;;;;;2.83;2.28;;;;;;;;;;5055636;28;20021;-59
2023/06/29 07:26:29;;;;;;;4.20;2.78;;;;;;;;;;5056280;28;20032;-60
2023/06/29 07:28:55;;;;;;;3.40;2.53;;;;;;;;;;5055736;28;20028;-60
2023/06/29 07:31:24;;;;;;;2.72;2.13;;;;;;;;;;5055541;28;20025;-60
2023/06/29 07:33:52;;;;;;;3.13;2.58;;;;;;;;;;5055945;28;20355;-60
2023/06/29 07:36:18;;;;;;;3.28;2.17;;;;;;;;;;5055628;28;20036;-60
2023/06/29 07:38:44;;;;;;;3.08;2.00;;;;;;;;;;5055597;28;20027;-60
2023/06/29 07:41:10;;;;;;;2.60;1.90;;;;;;;;;;5055325;28;20021;-60
2023/06/29 07:43:36;;;;;;;3.15;2.17;;;;;;;;;;5056195;28;20021;-60
2023/06/29 07:46:01;;;;;;;6.72;2.58;;;;;;;;;;5055416;28;20021;-60
2023/06/29 07:48:28;;;;;;;5.53;2.70;;;;;;;;;;5055454;28;20086;-60
2023/06/29 07:50:54;;;;;;;2.85;2.20;;;;;;;;;;5055313;28;20047;-60
2023/06/29 07:53:21;;;;;;;6.13;2.40;;;;;;;;;;5055869;28;20024;-60
2023/06/29 07:55:47;;;;;;;4.93;1.95;;;;;;;;;;5055557;28;20025;-60
2023/06/29 07:58:12;;;;;;;3.20;2.10;;;;;;;;;;5055762;28;20021;-60
2023/06/29 08:00:38;;;;;;;3.67;2.15;;;;;;;;;;5055357;28;20024;-60
2023/06/29 08:03:05;;;;;;;3.13;1.92;;;;;;;;;;5055204;28;20469;-60
2023/06/29 08:05:31;;;;;;;2.75;1.55;;;;;;;;;;5055622;28;20029;-60
2023/06/29 08:07:56;;;;;;;6.40;2.42;;;;;;;;;;5055394;28;20413;-60
2023/06/29 08:10:22;;;;;;;3.10;1.63;;;;;;;;;;5055173;28;20068;-60
2023/06/29 08:12:49;;;;;;;6.30;2.38;;;;;;;;;;5054600;28;20029;-60
2023/06/29 08:15:15;;;;;;;3.75;2.20;;;;;;;;;;5055073;28;20049;-60
2023/06/29 08:17:41;;;;;;;3.47;1.80;;;;;;;;;;5055195;28;20473;-60
2023/06/29 08:20:12;;;;;;;4.18;2.00;;;;;;;;;;5055281;28;20112;-60
2023/06/29 08:22:37;;;;;;;;;;;;;;;;;;5055471;28;20467;-60
2023/06/29 08:25:04;;;;;;;3.75;1.92;;;;;;;;;;5054828;28;19958;-60
2023/06/29 08:27:30;;;;;;;4.25;2.20;;;;;;;;;;5054803;28;20025;-60
2023/06/29 08:29:56;;;;;;;3.13;1.42;;;;;;;;;;5054637;28;20175;-60
2023/06/29 08:32:22;;;;;;;3.10;2.00;;;;;;;;;;5054818;28;20024;-60
2023/06/29 08:34:48;;;;;;;4.88;2.13;;;;;;;;;;5055090;28;20021;-60
2023/06/29 08:37:14;;;;;;;3.80;1.70;;;;;;;;;;5054915;28;20028;-60
2023/06/29 08:39:40;;;;;;;5.20;1.42;;;;;;;;;;5054965;28;20029;-60
2023/06/29 08:42:07;;;;;;;2.67;1.73;;;;;;;;;;5054410;28;20074;-60
2023/06/29 08:44:33;;;;;;;2.10;1.23;;;;;;;;;;5054394;28;20031;-60
2023/06/29 08:47:00;;;;;;;2.58;1.67;;;;;;;;;;5054371;28;20467;-60
2023/06/29 08:49:26;;;;;;;3.22;1.58;;;;;;;;;;5054725;28;20353;-60
2023/06/29 08:51:55;;;;;;;6.13;2.10;;;;;;;;;;5054338;28;20348;-60
2023/06/29 08:54:22;;;;;;;2.97;1.52;;;;;;;;;;5054315;28;20096;-60
2023/06/29 08:56:48;;;;;;;2.92;1.50;;;;;;;;;;5054175;28;20043;-60
2023/06/29 08:59:15;;;;;;;3.80;2.20;;;;;;;;;;5053848;28;20078;-60
2023/06/29 09:01:41;;;;;;;2.80;1.75;;;;;;;;;;5054949;28;20332;-60
2023/06/29 09:04:07;;;;;;;2.50;1.60;;;;;;;;;;5054505;28;20029;-60
2023/06/29 09:06:33;;;;;;;2.55;1.83;;;;;;;;;;5054574;28;20021;-60
2023/06/29 09:08:59;;;;;;;2.28;1.70;;;;;;;;;;5053995;28;20033;-60
2023/06/29 09:11:25;;;;;;;6.47;1.77;;;;;;;;;;5052936;28;20060;-60
2023/06/29 09:13:51;;;;;;;2.67;1.63;;;;;;;;;;5054210;28;20474;-60
2023/06/29 09:16:21;;;;;;;9.07;2.30;;;;;;;;;;5053467;28;20076;-60
2023/06/29 09:18:54;;;;;;;3.33;1.92;;;;;;;;;;5053635;28;20492;-60
2023/06/29 09:21:23;;;;;;;2.55;1.67;;;;;;;;;;5053701;28;20390;-60
2023/06/29 09:23:49;;;;;;;2.13;1.55;;;;;;;;;;5054182;28;20057;-60
2023/06/29 09:26:17;;;;;;;2.08;1.40;;;;;;;;;;5054244;28;20422;-60
2023/06/29 09:28:46;;;;;;;2.70;1.83;;;;;;;;;;5053628;28;20025;-60
2023/06/29 09:31:13;;;;;;;4.07;1.75;;;;;;;;;;5053557;28;20489;-60
2023/06/29 09:33:39;;;;;;;2.45;1.40;;;;;;;;;;5053374;28;20466;-61
2023/06/29 09:36:09;;;;;;;2.92;1.70;;;;;;;;;;5053740;28;20021;-60
2023/06/29 09:38:35;;;;;;;3.95;1.88;;;;;;;;;;5053743;28;20029;-60
2023/06/29 09:41:02;;;;;;;2.97;1.30;;;;;;;;;;5053910;28;20083;-60
2023/06/29 09:43:29;;;;;;;1.85;1.20;;;;;;;;;;5054076;28;20025;-60
2023/06/29 09:46:05;;;;;;;3.03;1.73;;;;;;;;;;5054041;28;20078;-61
2023/06/29 09:48:31;;;;;;;3.67;1.95;;;;;;;;;;5053858;28;20024;-60
2023/06/29 09:50:57;;;;;;;4.72;2.03;;;;;;;;;;5053885;28;20129;-60
2023/06/29 09:53:31;;;;;;;3.92;1.80;;;;;;;;;;5053414;28;20056;-61
2023/06/29 09:56:01;;;;;;;8.75;2.50;;;;;;;;;;5053620;28;20112;-60
2023/06/29 09:58:29;;;;;;;3.60;2.47;;;;;;;;;;5053511;28;20024;-61
2023/06/29 10:00:58;;;;;;;2.88;2.10;;;;;;;;;;5053286;28;20029;-61
2023/06/29 10:03:26;;;;;;;4.97;1.73;;;;;;;;;;5053883;28;20040;-61
2023/06/29 10:05:56;;;;;;;3.92;1.98;;;;;;;;;;5053567;28;20099;-61
2023/06/29 10:08:22;;;;;;;2.00;1.17;;;;;;;;;;5053171;28;20452;-61
2023/06/29 10:10:51;;;;;;;5.00;2.15;;;;;;;;;;5053468;28;20048;-60
2023/06/29 10:13:18;;;;;;;2.30;1.40;;;;;;;;;;5053364;28;20494;-61
2023/06/29 10:15:44;;;;;;;2.33;1.70;;;;;;;;;;5053401;28;20053;-61
2023/06/29 10:18:12;;;;;;;4.05;1.60;;;;;;;;;;5053196;28;20442;-61
2023/06/29 10:20:43;;;;;;;5.28;1.25;;;;;;;;;;5053283;28;20068;-61
2023/06/29 10:23:11;;;;;;;2.85;1.80;;;;;;;;;;5056252;28;20025;-61
2023/06/29 10:25:40;;;;;;;2.20;1.45;;;;;;;;;;5056888;28;20550;-60
2023/06/29 10:28:06;;;;;;;2.30;1.52;;;;;;;;;;5057621;28;20028;-60
2023/06/29 10:30:43;;;;;;;3.47;1.67;;;;;;;;;;5056907;28;20037;-61
2023/06/29 10:33:10;;;;;;;3.83;1.50;;;;;;;;;;5056781;28;20025;-61
2023/06/29 10:35:36;;;;;;;2.72;1.40;;;;;;;;;;5056767;28;20029;-61
2023/06/29 10:38:08;;;;;;;2.53;1.40;;;;;;;;;;5056741;28;20051;-61
2023/06/29 10:40:36;;;;;;;3.35;1.27;;;;;;;;;;5057317;28;20017;-61
2023/06/29 10:43:02;;;;;;;2.53;1.50;;;;;;;;;;5057476;28;20025;-61
2023/06/29 10:45:28;;;;;;;2.67;1.50;;;;;;;;;;5056699;28;20029;-61
2023/06/29 10:47:57;;;;;;;2.95;1.85;;;;;;;;;;5056930;28;20033;-61
2023/06/29 10:50:28;;;;;;;3.58;1.75;;;;;;;;;;5056778;28;20037;-61
2023/06/29 10:52:58;;;;;;;3.05;1.63;;;;;;;;;;5056842;28;20029;-61
2023/06/29 10:55:25;;;;;;;2.85;1.70;;;;;;;;;;5057127;28;20359;-61
2023/06/29 10:57:51;;;;;;;2.60;1.70;;;;;;;;;;5056920;28;20486;-61
2023/06/29 11:00:18;;;;;;;2.75;1.88;;;;;;;;;;5056316;28;20075;-61
2023/06/29 11:02:44;;;;;;;2.47;1.52;;;;;;;;;;5056556;28;20078;-61
2023/06/29 11:05:14;;;;;;;2.47;1.83;;;;;;;;;;5056244;28;20502;-61
2023/06/29 11:07:40;;;;;;;2.55;1.73;;;;;;;;;;5055959;28;20024;-61
2023/06/29 11:10:06;;;;;;;2.95;1.92;;;;;;;;;;5056151;28;20036;-61
2023/06/29 11:12:32;;;;;;;3.67;2.08;;;;;;;;;;5056121;28;20459;-61
2023/06/29 11:14:58;;;;;;;3.95;1.83;;;;;;;;;;5056249;28;20051;-61
2023/06/29 11:17:24;;;;;;;2.75;2.00;;;;;;;;;;5054671;28;20451;-61
2023/06/29 11:19:50;;;;;;;4.25;2.05;;;;;;;;;;5056253;28;20040;-61
2023/06/29 11:22:19;;;;;;;9.40;3.90;;;;;;;;;;5056027;28;20049;-61
2023/06/29 11:24:46;;;;;;;3.13;2.40;;;;;;;;;;5056413;28;20056;-61
2023/06/29 11:27:16;;;;;;;5.05;2.17;;;;;;;;;;5056398;28;20062;-61
2023/06/29 11:29:42;;;;;;;;;;;;;;;;;;5056997;28;20033;-61
2023/06/29 11:32:10;;;;;;;3.05;2.25;;;;;;;;;;5056002;28;19905;-61
2023/06/29 11:34:36;;;;;;;3.83;2.38;;;;;;;;;;5054900;28;20025;-61
2023/06/29 11:37:02;;;;;;;3.10;2.17;;;;;;;;;;5055579;28;20159;-61
2023/06/29 11:39:29;;;;;;;5.03;2.58;;;;;;;;;;5055568;28;20028;-61
2023/06/29 11:41:55;;;;;;;8.43;2.63;;;;;;;;;;5056124;28;20021;-61
2023/06/29 11:44:25;;;;;;;3.80;2.70;;;;;;;;;;5055536;28;20467;-61
2023/06/29 11:46:56;;;;;;;4.88;2.70;;;;;;;;;;5056139;28;20032;-60
2023/06/29 11:49:22;;;;;;;3.85;2.83;;;;;;;;;;5055990;28;20029;-61
2023/06/29 11:51:49;;;;;;;10.07;3.30;;;;;;;;;;5055753;28;20518;-61
2023/06/29 11:54:15;;;;;;;4.57;3.30;;;;;;;;;;5055877;28;20021;-61
2023/06/29 11:56:42;;;;;;;3.90;2.65;;;;;;;;;;5055353;28;20033;-60
2023/06/29 11:59:10;;;;;;;5.47;3.05;;;;;;;;;;5055186;28;20418;-61
2023/06/29 12:01:37;;;;;;;5.63;4.05;;;;;;;;;;5055201;28;20025;-61
2023/06/29 12:04:07;;;;;;;3.60;2.80;;;;;;;;;;5055170;28;20021;-61
2023/06/29 12:06:36;;;;;;;3.47;2.72;;;;;;;;;;5055714;28;20075;-61
2023/06/29 12:09:11;;;;;;;3.53;2.53;;;;;;;;;;5055199;28;20036;-61
2023/06/29 12:11:39;;;;;;;5.68;2.42;;;;;;;;;;5054838;28;20395;-61
2023/06/29 12:14:06;;;;;;;5.20;2.97;;;;;;;;;;5054852;28;20021;-61
2023/06/29 12:16:31;;;;;;;3.90;2.92;;;;;;;;;;5054847;28;20025;-61
2023/06/29 12:18:59;;;;;;;3.38;2.55;;;;;;;;;;5055163;28;20033;-61
2023/06/29 12:21:25;;;;;;;4.80;2.55;;;;;;;;;;5055315;28;20454;-61
2023/06/29 12:23:51;;;;;;;4.18;3.72;;;;;;;;;;5055108;28;20025;-61
2023/06/29 12:26:18;;;;;;;4.05;2.95;;;;;;;;;;5055115;28;20474;-61
2023/06/29 12:28:44;;;;;;;4.30;3.10;;;;;;;;;;5054662;28;20029;-61
2023/06/29 12:31:11;;;;;;;5.20;2.75;;;;;;;;;;5054334;28;20033;-61
2023/06/29 12:33:37;;;;;;;5.10;3.67;;;;;;;;;;5054495;28;20021;-61
2023/06/29 12:36:03;;;;;;;8.13;4.22;;;;;;;;;;5054310;28;20325;-61
2023/06/29 12:38:29;;;;;;;4.97;3.63;;;;;;;;;;5054284;28;20421;-61
2023/06/29 12:40:55;;;;;;;5.65;3.63;;;;;;;;;;5054504;28;20078;-61
2023/06/29 12:43:21;;;;;;;4.20;3.22;;;;;;;;;;5054596;28;20021;-61
2023/06/29 12:45:47;;;;;;;4.07;3.03;;;;;;;;;;5053641;28;20028;-61
2023/06/29 12:48:12;;;;;;;5.03;3.30;;;;;;;;;;5054741;28;20029;-61
2023/06/29 12:50:38;;;;;;;3.97;3.25;;;;;;;;;;5054475;28;20105;-61
2023/06/29 12:53:04;;;;;;;3.88;2.70;;;;;;;;;;5055072;28;20339;-61
2023/06/29 12:55:30;;;;;;;3.92;2.72;;;;;;;;;;5054253;28;20021;-61
2023/06/29 12:57:56;;;;;;;3.95;3.28;;;;;;;;;;5054651;28;20024;-61
2023/06/29 13:00:22;;;;;;;4.63;3.10;;;;;;;;;;5054173;28;20029;-61
2023/06/29 13:02:48;;;;;;;6.45;3.45;;;;;;;;;;5054336;28;20032;-61
2023/06/29 13:05:14;;;;;;;3.05;2.25;;;;;;;;;;5054083;28;20021;-61
2023/06/29 13:07:42;;;;;;;4.57;2.72;;;;;;;;;;5054485;28;20025;-61
2023/06/29 13:10:11;;;;;;;5.18;3.13;;;;;;;;;;5053997;28;20112;-60
2023/06/29 13:12:39;;;;;;;4.03;2.60;;;;;;;;;;5053994;28;20025;-61
2023/06/29 13:15:06;;;;;;;4.13;2.55;;;;;;;;;;5053779;28;20487;-63
2023/06/29 13:17:32;;;;;;;7.90;2.33;;;;;;;;;;5053586;28;20475;-62
2023/06/29 13:19:57;;;;;;;3.17;2.22;;;;;;;;;;5053831;28;20064;-60
2023/06/29 13:22:24;;;;;;;2.63;2.10;;;;;;;;;;5053794;28;20055;-62
2023/06/29 13:24:50;;;;;;;2.97;2.17;;;;;;;;;;5054559;28;20345;-60
2023/06/29 13:27:16;;;;;;;2.92;2.15;;;;;;;;;;5054209;28;20086;-60
2023/06/29 13:29:42;;;;;;;3.50;2.45;;;;;;;;;;5053561;28;20029;-61
2023/06/29 13:32:08;;;;;;;3.42;2.38;;;;;;;;;;5053598;28;20067;-60
2023/06/29 13:34:34;;;;;;;3.03;2.15;;;;;;;;;;5053590;28;20027;-61
2023/06/29 13:37:00;;;;;;;3.08;1.95;;;;;;;;;;5053654;28;20021;-61
2023/06/29 13:39:26;;;;;;;4.97;2.55;;;;;;;;;;5053882;28;20079;-61
2023/06/29 13:41:52;;;;;;;3.72;2.17;;;;;;;;;;5053554;28;20025;-61
2023/06/29 13:44:18;;;;;;;2.72;2.17;;;;;;;;;;5053878;28;20103;-61
2023/06/29 13:46:45;;;;;;;2.97;2.45;;;;;;;;;;5054140;28;20018;-62
2023/06/29 13:49:11;;;;;;;4.15;2.58;;;;;;;;;;5054121;28;20459;-60
2023/06/29 13:51:37;;;;;;;4.13;2.72;;;;;;;;;;5053359;28;20037;-61
2023/06/29 13:54:04;;;;;;;2.97;2.45;;;;;;;;;;5053494;28;20013;-60
2023/06/29 13:56:34;;;;;;;5.93;2.53;;;;;;;;;;5053792;28;20025;-60
2023/06/29 13:59:03;;;;;;;;;;;;;;;;;;5058662;28;20062;-60
2023/06/29 14:01:29;;;;;;;3.55;2.85;;;;;;;;;;5057368;28;19912;-61
2023/06/29 14:03:55;;;;;;;5.10;2.35;;;;;;;;;;5057270;28;20104;-61
2023/06/29 14:06:21;;;;;;;5.13;2.75;;;;;;;;;;5057728;28;20029;-61
2023/06/29 14:08:47;;;;;;;3.88;2.17;;;;;;;;;;5057658;28;20478;-61
2023/06/29 14:11:13;;;;;;;2.60;2.10;;;;;;;;;;5057104;28;20037;-59
2023/06/29 14:13:39;;;;;;;3.95;2.53;;;;;;;;;;5057853;28;20104;-58
2023/06/29 14:16:05;;;;;;;4.63;3.10;;;;;;;;;;5058156;28;20434;-58
2023/06/29 14:18:31;;;;;;;5.47;2.13;;;;;;;;;;5057015;28;20467;-58
2023/06/29 14:20:57;;;;;;;3.45;2.50;;;;;;;;;;5057542;28;20033;-58
2023/06/29 14:23:24;;;;;;;3.00;2.55;;;;;;;;;;5056703;28;20025;-59
2023/06/29 14:25:50;;;;;;;4.75;1.95;;;;;;;;;;5057043;28;20025;-59
2023/06/29 14:28:16;;;;;;;3.17;2.47;;;;;;;;;;5057238;28;20068;-59
2023/06/29 14:30:42;;;;;;;3.50;2.60;;;;;;;;;;5056982;28;20466;-59
2023/06/29 14:33:08;;;;;;;4.75;2.85;;;;;;;;;;5057433;28;20100;-59
2023/06/29 14:35:34;;;;;;;6.82;2.97;;;;;;;;;;5056732;28;20026;-59
2023/06/29 14:38:00;;;;;;;5.80;2.58;;;;;;;;;;5057182;28;20029;-59
2023/06/29 14:40:26;;;;;;;2.53;2.05;;;;;;;;;;5056657;28;20028;-59